Time;durP1;ratioP1;P1;durP2;ratioP2;P2;SDS_P1;SDS_P2;PMS_P1;PMS_P2;Temp;Humidity;BMP_temperature;BMP_pressure;BME280_temperature;BME280_humidity;BME280_pressure;Samples;Min_cycle;Max_cycle;Signal;HPM_P1;HPM_P2
2020/12/22 00:00:53;;;;;;;1.20;1.10;;;10.60;99.90;;;;;;5044380;28;20177;-75
2020/12/22 00:03:18;;;;;;;1.10;1.10;;;10.60;99.90;;;;;;5041473;28;20186;-76
2020/12/22 00:05:45;;;;;;;1.17;1.07;;;10.60;99.90;;;;;;5046825;28;20214;-76
2020/12/22 00:08:13;;;;;;;0.90;0.90;;;10.70;99.90;;;;;;5043480;28;20186;-76
2020/12/22 00:10:39;;;;;;;0.90;0.90;;;10.70;99.90;;;;;;5045810;28;20429;-76
2020/12/22 00:13:04;;;;;;;0.90;0.90;;;10.70;99.90;;;;;;5036887;28;20516;-74
2020/12/22 00:15:30;;;;;;;1.70;0.87;;;10.70;99.90;;;;;;5052159;28;20209;-74
2020/12/22 00:17:55;;;;;;;1.20;1.10;;;10.70;99.90;;;;;;5038500;28;20276;-75
2020/12/22 00:20:21;;;;;;;1.33;1.00;;;10.80;99.90;;;;;;5040976;28;20281;-75
2020/12/22 00:22:49;;;;;;;0.90;0.90;;;10.80;99.90;;;;;;5052619;28;20304;-75
2020/12/22 00:25:14;;;;;;;1.00;1.00;;;10.80;99.90;;;;;;5044471;28;20193;-75
2020/12/22 00:27:40;;;;;;;0.97;0.97;;;10.90;99.90;;;;;;5052095;28;20420;-75
2020/12/22 00:30:06;;;;;;;0.77;0.63;;;10.90;99.90;;;;;;5044332;28;20257;-75
2020/12/22 00:32:33;;;;;;;0.80;0.80;;;10.90;99.90;;;;;;5050884;28;20206;-75
2020/12/22 00:34:59;;;;;;;1.17;1.00;;;11.00;99.90;;;;;;5048285;28;20214;-75
2020/12/22 00:37:24;;;;;;;0.70;0.70;;;11.00;99.90;;;;;;5048151;28;20484;-75
2020/12/22 00:39:50;;;;;;;0.80;0.80;;;11.00;99.90;;;;;;5033754;28;20654;-76
2020/12/22 00:42:15;;;;;;;0.87;0.87;;;11.00;99.90;;;;;;5045584;28;20257;-75
2020/12/22 00:44:41;;;;;;;0.80;0.80;;;11.10;99.90;;;;;;5046372;28;20216;-75
2020/12/22 00:47:06;;;;;;;0.73;0.73;;;11.10;99.90;;;;;;5051345;28;20202;-75
2020/12/22 00:49:32;;;;;;;0.93;0.80;;;11.10;99.90;;;;;;5037068;28;20178;-74
2020/12/22 00:51:59;;;;;;;0.57;0.57;;;11.10;99.90;;;;;;5044833;28;20197;-75
2020/12/22 00:54:25;;;;;;;0.80;0.80;;;11.10;99.90;;;;;;5036651;28;20564;-76
2020/12/22 00:56:51;;;;;;;0.80;0.80;;;11.20;99.90;;;;;;5052602;28;20994;-76
2020/12/22 00:59:17;;;;;;;0.90;0.70;;;11.20;99.90;;;;;;5044711;28;20775;-76
2020/12/22 01:01:43;;;;;;;0.83;0.83;;;11.30;99.90;;;;;;5042293;28;20435;-75
2020/12/22 01:04:08;;;;;;;1.53;0.70;;;11.30;99.90;;;;;;5046482;28;20177;-75
2020/12/22 01:06:38;;;;;;;0.87;0.87;;;11.30;99.90;;;;;;5036048;28;20198;-75
2020/12/22 01:09:07;;;;;;;0.87;0.63;;;11.30;99.90;;;;;;5044318;28;20680;-75
2020/12/22 01:11:37;;;;;;;0.67;0.67;;;11.30;99.90;;;;;;5044681;28;20422;-75
2020/12/22 01:14:04;;;;;;;0.77;0.70;;;11.40;99.90;;;;;;5044384;28;20432;-75
2020/12/22 01:16:29;;;;;;;0.80;0.73;;;11.40;99.90;;;;;;5046595;28;20429;-75
2020/12/22 01:18:55;;;;;;;1.00;0.80;;;11.40;99.90;;;;;;5041547;28;20457;-74
2020/12/22 01:21:21;;;;;;;0.70;0.70;;;11.40;99.90;;;;;;5036035;28;20215;-75
2020/12/22 01:23:47;;;;;;;1.20;0.60;;;11.40;99.90;;;;;;5047775;28;20182;-75
2020/12/22 01:26:18;;;;;;;0.90;0.90;;;11.40;99.90;;;;;;5047185;28;20436;-75
2020/12/22 01:28:43;;;;;;;0.93;0.80;;;11.40;99.90;;;;;;5055588;28;20459;-75
2020/12/22 01:31:09;;;;;;;2.70;0.70;;;11.40;99.90;;;;;;5041365;28;20928;-75
2020/12/22 01:33:34;;;;;;;0.80;0.80;;;11.40;99.90;;;;;;5044202;28;20195;-76
2020/12/22 01:36:00;;;;;;;0.90;0.90;;;11.40;99.90;;;;;;5039569;28;20202;-75
2020/12/22 01:38:25;;;;;;;2.10;1.30;;;11.40;99.90;;;;;;5039596;28;20195;-75
2020/12/22 01:40:51;;;;;;;0.80;0.80;;;11.50;99.90;;;;;;5043381;28;20198;-75
2020/12/22 01:43:17;;;;;;;2.77;1.20;;;11.50;99.90;;;;;;5040811;28;20174;-76
2020/12/22 01:45:42;;;;;;;0.90;0.90;;;11.50;99.90;;;;;;5053416;28;20198;-75
2020/12/22 01:48:09;;;;;;;1.00;1.00;;;11.50;99.90;;;;;;5043189;28;20551;-75
2020/12/22 01:50:35;;;;;;;1.30;1.20;;;11.50;99.90;;;;;;5043942;28;20174;-75
2020/12/22 01:53:00;;;;;;;1.93;1.30;;;11.50;99.90;;;;;;5045431;28;20431;-75
2020/12/22 01:55:26;;;;;;;0.90;0.90;;;11.50;99.90;;;;;;5050341;28;20209;-75
2020/12/22 01:57:51;;;;;;;1.37;1.30;;;11.50;99.90;;;;;;5045445;28;20206;-75
2020/12/22 02:00:17;;;;;;;1.70;1.60;;;11.50;99.90;;;;;;5043526;28;20240;-76
2020/12/22 02:02:42;;;;;;;1.87;1.70;;;11.50;99.90;;;;;;5041980;28;20259;-75
2020/12/22 02:05:08;;;;;;;1.70;1.40;;;11.60;99.90;;;;;;5036112;28;20183;-75
2020/12/22 02:07:35;;;;;;;1.90;1.80;;;11.60;99.90;;;;;;5048374;28;20194;-75
2020/12/22 02:10:02;;;;;;;1.53;1.43;;;11.60;99.90;;;;;;5046666;28;20614;-75
2020/12/22 02:12:28;;;;;;;1.50;1.40;;;11.60;99.90;;;;;;5043201;28;20436;-75
2020/12/22 02:14:53;;;;;;;1.50;1.40;;;11.70;99.90;;;;;;5048608;28;20444;-75
2020/12/22 02:17:19;;;;;;;1.87;1.63;;;11.70;99.90;;;;;;5045148;28;20285;-75
2020/12/22 02:19:44;;;;;;;1.77;1.67;;;11.70;99.90;;;;;;5047300;28;20186;-76
2020/12/22 02:22:10;;;;;;;1.60;1.50;;;11.80;99.90;;;;;;5054681;28;20253;-75
2020/12/22 02:24:36;;;;;;;1.57;1.47;;;11.80;99.90;;;;;;5036155;28;20626;-76
2020/12/22 02:27:03;;;;;;;2.13;1.50;;;11.80;99.90;;;;;;5050830;28;20240;-76
2020/12/22 02:29:29;;;;;;;2.03;1.70;;;11.90;99.90;;;;;;5046091;28;20417;-76
2020/12/22 02:31:56;;;;;;;1.67;1.43;;;11.90;99.90;;;;;;5045009;28;20455;-75
2020/12/22 02:34:22;;;;;;;1.57;1.47;;;11.90;99.90;;;;;;5054717;28;20303;-75
2020/12/22 02:36:47;;;;;;;2.10;1.60;;;11.90;99.90;;;;;;5056439;28;20940;-75
2020/12/22 02:39:13;;;;;;;1.83;1.73;;;11.90;99.90;;;;;;5046251;28;20261;-75
2020/12/22 02:41:38;;;;;;;1.90;1.80;;;11.90;99.90;;;;;;5052468;28;20540;-76
2020/12/22 02:44:04;;;;;;;1.80;1.70;;;11.90;99.90;;;;;;5050767;28;20183;-76
2020/12/22 02:46:29;;;;;;;1.70;1.60;;;11.90;99.90;;;;;;5040160;28;20194;-75
2020/12/22 02:48:55;;;;;;;1.90;1.80;;;11.90;99.90;;;;;;5038458;28;20166;-75
2020/12/22 02:51:20;;;;;;;2.00;1.90;;;12.00;99.90;;;;;;5054515;28;20174;-75
2020/12/22 02:53:46;;;;;;;1.97;1.87;;;12.00;99.90;;;;;;5046515;28;20183;-76
2020/12/22 02:56:11;;;;;;;2.00;1.90;;;12.00;99.90;;;;;;5049257;28;20251;-76
2020/12/22 02:58:37;;;;;;;2.10;2.00;;;12.10;99.90;;;;;;5042938;28;20194;-77
2020/12/22 03:01:03;;;;;;;2.53;2.10;;;12.10;99.90;;;;;;5053680;28;20166;-75
2020/12/22 03:03:28;;;;;;;3.60;3.30;;;12.20;99.90;;;;;;5053804;28;20176;-75
2020/12/22 03:05:54;;;;;;;2.63;2.43;;;12.20;99.90;;;;;;5050723;28;20526;-75
2020/12/22 03:08:19;;;;;;;2.30;2.20;;;12.30;99.90;;;;;;5047034;28;20261;-74
2020/12/22 03:10:45;;;;;;;3.10;2.53;;;12.30;99.90;;;;;;5037011;28;20278;-75
2020/12/22 03:13:11;;;;;;;3.20;2.57;;;12.40;99.90;;;;;;5037844;28;20732;-75
2020/12/22 03:15:36;;;;;;;2.13;2.03;;;12.40;99.90;;;;;;5038602;28;20198;-74
2020/12/22 03:18:04;;;;;;;2.33;2.23;;;12.50;99.90;;;;;;5052699;28;20331;-76
2020/12/22 03:20:29;;;;;;;2.10;2.00;;;12.50;99.90;;;;;;5039307;28;20730;-76
2020/12/22 03:22:55;;;;;;;2.20;2.00;;;12.50;99.90;;;;;;5049521;28;20444;-76
2020/12/22 03:25:20;;;;;;;2.30;2.10;;;12.60;99.90;;;;;;5046344;28;20556;-75
2020/12/22 03:27:46;;;;;;;2.33;2.23;;;12.60;99.90;;;;;;5037155;28;20233;-75
2020/12/22 03:30:14;;;;;;;2.10;1.90;;;12.60;99.90;;;;;;5041830;28;20204;-75
2020/12/22 03:32:39;;;;;;;2.90;2.10;;;12.60;99.90;;;;;;5032695;28;20449;-75
2020/12/22 03:35:06;;;;;;;2.53;2.20;;;12.70;99.90;;;;;;5042893;28;20440;-75
2020/12/22 03:37:32;;;;;;;2.10;2.00;;;12.70;99.90;;;;;;5039978;28;20225;-75
2020/12/22 03:40:01;;;;;;;2.10;2.00;;;12.70;99.90;;;;;;5041568;28;20420;-75
2020/12/22 03:42:27;;;;;;;2.47;2.17;;;12.80;99.90;;;;;;5052691;28;20409;-75
2020/12/22 03:44:53;;;;;;;2.10;1.60;;;12.80;99.90;;;;;;5044425;28;20417;-75
2020/12/22 03:47:19;;;;;;;2.50;2.30;;;12.80;99.90;;;;;;5041958;28;20578;-75
2020/12/22 03:49:45;;;;;;;1.83;1.73;;;12.80;99.90;;;;;;5033586;28;20453;-75
2020/12/22 03:52:10;;;;;;;1.97;1.77;;;12.90;99.90;;;;;;5033821;28;20183;-76
2020/12/22 03:54:37;;;;;;;1.80;1.70;;;12.90;99.90;;;;;;5040709;28;20174;-75
2020/12/22 03:57:04;;;;;;;1.90;1.80;;;12.90;99.90;;;;;;5041453;28;20484;-75
2020/12/22 03:59:29;;;;;;;2.00;1.90;;;12.90;99.90;;;;;;5041254;28;20426;-76
2020/12/22 04:01:55;;;;;;;1.40;1.30;;;12.90;99.90;;;;;;5041017;28;20536;-73
2020/12/22 04:04:22;;;;;;;1.80;1.70;;;12.90;99.90;;;;;;5041061;28;20297;-76
2020/12/22 04:06:48;;;;;;;1.93;1.70;;;12.90;99.90;;;;;;5033030;28;20244;-75
2020/12/22 04:09:14;;;;;;;1.60;1.50;;;13.00;99.90;;;;;;5033950;28;20810;-75
2020/12/22 04:11:40;;;;;;;1.40;1.40;;;13.00;99.90;;;;;;5048485;28;20413;-76
2020/12/22 04:14:07;;;;;;;3.30;1.97;;;12.90;99.90;;;;;;5048389;28;20937;-76
2020/12/22 04:16:33;;;;;;;1.80;1.70;;;13.00;99.90;;;;;;5033157;28;20669;-75
2020/12/22 04:18:58;;;;;;;1.90;1.80;;;13.00;99.90;;;;;;5034800;28;20545;-74
2020/12/22 04:21:24;;;;;;;1.63;1.50;;;13.00;99.90;;;;;;5045174;28;20162;-74
2020/12/22 04:23:49;;;;;;;1.70;1.60;;;13.00;99.90;;;;;;5043679;28;20167;-74
2020/12/22 04:26:15;;;;;;;1.80;1.70;;;13.10;99.90;;;;;;5052561;28;20197;-74
2020/12/22 04:28:40;;;;;;;1.60;1.50;;;13.00;99.90;;;;;;5053173;28;20533;-74
2020/12/22 04:31:06;;;;;;;3.60;1.87;;;13.10;99.90;;;;;;5043940;28;20197;-74
2020/12/22 04:33:31;;;;;;;1.60;1.50;;;13.10;99.90;;;;;;5040138;28;20190;-74
2020/12/22 04:35:57;;;;;;;1.70;1.60;;;13.10;99.90;;;;;;5043851;28;20260;-75
2020/12/22 04:38:22;;;;;;;2.20;1.73;;;13.10;99.90;;;;;;5052751;28;20234;-75
2020/12/22 04:40:48;;;;;;;2.30;1.53;;;13.10;99.90;;;;;;5048102;28;20507;-75
2020/12/22 04:43:15;;;;;;;1.63;1.53;;;13.10;99.90;;;;;;5041177;28;20182;-75
2020/12/22 04:45:41;;;;;;;1.47;1.37;;;13.10;99.90;;;;;;5038169;28;20243;-75
2020/12/22 04:48:11;;;;;;;1.73;1.40;;;13.10;99.90;;;;;;5036990;28;20456;-75
2020/12/22 04:50:37;;;;;;;1.50;1.40;;;13.10;99.90;;;;;;5046183;28;20624;-75
2020/12/22 04:53:02;;;;;;;1.80;1.50;;;13.10;99.90;;;;;;5056530;28;20443;-75
2020/12/22 04:55:28;;;;;;;1.43;1.30;;;13.10;99.90;;;;;;5047766;28;20612;-75
2020/12/22 04:57:55;;;;;;;1.40;1.30;;;13.10;99.90;;;;;;5047769;28;20202;-75
2020/12/22 05:00:21;;;;;;;2.20;1.30;;;13.20;99.90;;;;;;5048790;28;20198;-75
2020/12/22 05:02:50;;;;;;;1.50;1.20;;;13.20;99.90;;;;;;5044464;28;20421;-75
2020/12/22 05:05:16;;;;;;;1.40;1.30;;;13.20;99.90;;;;;;5035953;28;20756;-75
2020/12/22 05:07:42;;;;;;;1.83;1.70;;;13.20;99.90;;;;;;5044021;28;20478;-75
2020/12/22 05:10:13;;;;;;;1.60;1.50;;;13.20;99.90;;;;;;5036079;28;20195;-75
2020/12/22 05:12:40;;;;;;;1.50;1.40;;;13.20;99.90;;;;;;5038176;28;20429;-75
2020/12/22 05:15:07;;;;;;;1.20;1.20;;;13.20;99.90;;;;;;5043066;28;20512;-75
2020/12/22 05:17:44;;;;;;;1.33;1.27;;;13.20;99.90;;;;;;5035582;28;20496;-74
2020/12/22 05:20:14;;;;;;;1.33;1.23;;;13.30;99.90;;;;;;5035682;28;20514;-75
2020/12/22 05:22:40;;;;;;;3.40;1.60;;;13.30;99.90;;;;;;5052109;28;20476;-75
2020/12/22 05:25:06;;;;;;;1.80;1.70;;;13.30;99.90;;;;;;5039303;28;20417;-76
2020/12/22 05:27:32;;;;;;;1.27;1.17;;;13.30;99.90;;;;;;5039873;28;20483;-75
2020/12/22 05:30:04;;;;;;;1.73;1.63;;;13.30;99.90;;;;;;5042058;28;20185;-76
2020/12/22 05:32:31;;;;;;;1.83;1.30;;;13.30;99.90;;;;;;5051299;28;20470;-75
2020/12/22 05:34:57;;;;;;;2.87;1.50;;;13.30;99.90;;;;;;5036969;28;21017;-76
2020/12/22 05:37:27;;;;;;;1.17;1.17;;;13.30;99.90;;;;;;5044021;28;20453;-76
2020/12/22 05:39:53;;;;;;;1.50;1.40;;;13.30;99.90;;;;;;5037126;28;20920;-75
2020/12/22 05:42:20;;;;;;;1.57;1.47;;;13.30;99.90;;;;;;5050778;28;20418;-76
2020/12/22 05:44:51;;;;;;;1.60;1.50;;;13.30;99.90;;;;;;5043337;28;20441;-76
2020/12/22 05:47:19;;;;;;;2.20;1.57;;;13.30;99.90;;;;;;5035517;28;20861;-75
2020/12/22 05:49:56;;;;;;;2.47;1.53;;;13.30;99.90;;;;;;5043609;28;20932;-76
2020/12/22 05:52:22;;;;;;;1.70;1.60;;;13.30;99.90;;;;;;5044404;28;20429;-76
2020/12/22 05:54:52;;;;;;;1.40;1.30;;;13.30;99.90;;;;;;5047267;28;20429;-76
2020/12/22 05:57:28;;;;;;;1.13;1.13;;;13.30;99.90;;;;;;5047143;28;21052;-76
2020/12/22 05:59:55;;;;;;;1.30;1.10;;;13.20;99.90;;;;;;5040370;28;20425;-76
2020/12/22 06:02:30;;;;;;;1.37;1.33;;;13.30;99.90;;;;;;5050976;28;20447;-76
2020/12/22 06:04:58;;;;;;;1.97;1.40;;;13.30;99.90;;;;;;5048975;28;20413;-76
2020/12/22 06:07:24;;;;;;;1.10;1.00;;;13.30;99.90;;;;;;5049476;28;20832;-76
2020/12/22 06:09:50;;;;;;;1.50;1.40;;;13.30;99.90;;;;;;5059539;28;20424;-76
2020/12/22 06:12:17;;;;;;;1.47;1.37;;;13.20;99.90;;;;;;5050123;28;20490;-76
2020/12/22 06:15:03;;;;;;;1.50;1.40;;;13.20;99.90;;;;;;5055284;28;20182;-76
2020/12/22 06:17:28;;;;;;;1.50;1.40;;;13.30;99.90;;;;;;5046281;28;20499;-74
2020/12/22 06:19:54;;;;;;;1.70;1.60;;;13.30;99.90;;;;;;5046849;28;20472;-74
2020/12/22 06:22:19;;;;;;;4.73;1.77;;;13.30;99.90;;;;;;5043856;28;20178;-75
2020/12/22 06:24:51;;;;;;;1.60;1.50;;;13.30;99.90;;;;;;5040756;28;20652;-74
2020/12/22 06:27:16;;;;;;;1.83;1.40;;;13.30;99.90;;;;;;5043888;28;20585;-74
2020/12/22 06:29:45;;;;;;;1.70;1.60;;;13.30;99.90;;;;;;5045003;28;20557;-74
2020/12/22 06:32:17;;;;;;;2.20;1.47;;;13.30;99.90;;;;;;5035010;28;20195;-74
2020/12/22 06:34:43;;;;;;;1.50;1.40;;;13.20;99.90;;;;;;5034196;28;20495;-74
2020/12/22 06:37:10;;;;;;;2.00;1.90;;;13.20;99.90;;;;;;5043579;28;20879;-75
2020/12/22 06:39:46;;;;;;;2.40;2.20;;;13.20;99.90;;;;;;5042018;28;20460;-75
2020/12/22 06:42:34;;;;;;;2.03;1.83;;;13.20;99.90;;;;;;5042028;28;20406;-74
2020/12/22 06:45:26;;;;;;;2.13;1.93;;;13.20;99.90;;;;;;5041355;28;20424;-75
2020/12/22 06:47:59;;;;;;;1.83;1.73;;;13.20;99.90;;;;;;5047075;28;20527;-75
2020/12/22 06:50:44;;;;;;;1.90;1.80;;;13.20;99.90;;;;;;5036635;28;20453;-75
2020/12/22 06:53:33;;;;;;;1.77;1.67;;;13.20;99.90;;;;;;5053196;28;20422;-75
2020/12/22 06:55:58;;;;;;;2.63;1.70;;;13.20;99.90;;;;;;5038183;28;20452;-75
2020/12/22 06:58:37;;;;;;;2.10;1.60;;;13.20;99.90;;;;;;5041435;28;20452;-75
2020/12/22 07:01:37;;;;;;;1.40;1.33;;;13.20;99.90;;;;;;5045174;28;20203;-75
2020/12/22 07:04:21;;;;;;;1.70;1.60;;;13.20;99.90;;;;;;5003751;28;20510;-75
2020/12/22 07:06:47;;;;;;;1.63;1.53;;;13.20;99.90;;;;;;5027469;28;20568;-75
2020/12/22 07:09:20;;;;;;;2.00;1.90;;;13.20;99.90;;;;;;5014620;28;20460;-75
2020/12/22 07:11:47;;;;;;;1.90;1.80;;;13.10;99.90;;;;;;5019554;28;20200;-75
2020/12/22 07:14:18;;;;;;;1.60;1.50;;;13.20;99.90;;;;;;5014666;28;20438;-74
2020/12/22 07:16:52;;;;;;;3.63;1.50;;;13.20;99.90;;;;;;5004018;28;20482;-75
2020/12/22 07:19:24;;;;;;;1.50;1.40;;;13.20;99.90;;;;;;5017274;28;20845;-75
2020/12/22 07:21:51;;;;;;;1.43;1.33;;;13.10;99.90;;;;;;5026862;28;20419;-76
2020/12/22 07:24:17;;;;;;;2.17;2.07;;;13.10;99.90;;;;;;5012026;28;20502;-76
2020/12/22 07:26:43;;;;;;;2.27;2.07;;;13.10;99.90;;;;;;5012012;28;20498;-75
2020/12/22 07:29:08;;;;;;;2.40;2.20;;;13.10;99.90;;;;;;5017782;28;20449;-75
2020/12/22 07:31:34;;;;;;;2.50;2.30;;;13.00;99.90;;;;;;5015067;28;20199;-75
2020/12/22 07:34:04;;;;;;;2.80;2.60;;;13.00;99.90;;;;;;5017455;28;20618;-75
2020/12/22 07:36:30;;;;;;;3.13;2.93;;;13.00;99.90;;;;;;4995331;28;20674;-76
2020/12/22 07:39:10;;;;;;;3.17;2.87;;;13.00;99.90;;;;;;5024703;28;20472;-75
2020/12/22 07:41:36;;;;;;;3.17;2.90;;;13.10;99.90;;;;;;5031588;28;20772;-75
2020/12/22 07:44:08;;;;;;;2.50;2.40;;;13.10;99.90;;;;;;5040451;28;21018;-75
2020/12/22 07:46:34;;;;;;;2.87;2.67;;;13.10;99.90;;;;;;5051940;28;20444;-74
2020/12/22 07:49:08;;;;;;;3.17;2.90;;;13.10;99.90;;;;;;5040165;28;20425;-76
2020/12/22 07:51:34;;;;;;;3.10;2.80;;;13.10;99.90;;;;;;5041171;28;20256;-75
2020/12/22 07:54:02;;;;;;;2.50;2.30;;;13.10;99.90;;;;;;5033198;28;20447;-74
2020/12/22 07:56:30;;;;;;;2.17;1.97;;;13.10;99.90;;;;;;5033217;28;20484;-74
2020/12/22 07:58:56;;;;;;;2.20;2.00;;;13.10;99.90;;;;;;5044485;28;20475;-74
2020/12/22 08:01:23;;;;;;;2.80;1.80;;;13.10;99.90;;;;;;5044719;28;20930;-74
2020/12/22 08:03:48;;;;;;;2.40;2.20;;;13.10;99.90;;;;;;5033941;28;20186;-73
2020/12/22 08:06:14;;;;;;;1.70;1.60;;;13.10;99.90;;;;;;5043453;28;20529;-74
2020/12/22 08:08:40;;;;;;;2.63;2.43;;;13.10;99.90;;;;;;5044821;28;20636;-73
2020/12/22 08:11:08;;;;;;;2.10;1.90;;;13.10;99.90;;;;;;5043966;28;20178;-73
2020/12/22 08:13:39;;;;;;;2.13;1.80;;;13.10;99.90;;;;;;5051760;28;20227;-72
2020/12/22 08:16:05;;;;;;;2.60;1.70;;;13.10;99.90;;;;;;5059560;28;20467;-72
2020/12/22 08:18:33;;;;;;;2.23;2.00;;;13.10;99.90;;;;;;5052123;28;20452;-73
2020/12/22 08:21:02;;;;;;;2.47;2.30;;;13.10;99.90;;;;;;5036067;28;20182;-72
2020/12/22 08:23:29;;;;;;;3.37;2.37;;;13.10;99.90;;;;;;5040635;28;20429;-73
2020/12/22 08:25:55;;;;;;;2.90;2.60;;;13.10;99.90;;;;;;5038207;28;20823;-73
2020/12/22 08:28:22;;;;;;;3.50;2.67;;;13.20;99.90;;;;;;5050944;28;20431;-73
2020/12/22 08:30:48;;;;;;;2.67;2.50;;;13.20;99.90;;;;;;5049287;28;20425;-73
2020/12/22 08:33:18;;;;;;;10.67;3.23;;;13.20;99.90;;;;;;5046676;28;20499;-72
2020/12/22 08:35:46;;;;;;;2.77;2.13;;;13.20;99.90;;;;;;5046176;28;20225;-73
2020/12/22 08:38:26;;;;;;;2.73;2.53;;;13.20;99.90;;;;;;5044507;28;20488;-72
2020/12/22 08:40:54;;;;;;;2.33;2.13;;;13.20;99.90;;;;;;5039147;28;20452;-72
2020/12/22 08:43:24;;;;;;;2.27;2.07;;;13.10;99.90;;;;;;5049035;28;20420;-75
2020/12/22 08:45:50;;;;;;;2.43;2.27;;;13.20;99.90;;;;;;5033126;28;20448;-73
2020/12/22 08:48:16;;;;;;;2.43;1.90;;;13.20;99.90;;;;;;5041939;28;20755;-73
2020/12/22 08:51:00;;;;;;;3.57;1.80;;;13.10;99.90;;;;;;5040858;28;20525;-75
2020/12/22 08:53:25;;;;;;;2.27;1.93;;;13.20;99.90;;;;;;5048529;28;20226;-75
2020/12/22 08:56:08;;;;;;;2.40;2.17;;;13.20;99.90;;;;;;5049136;28;20444;-74
2020/12/22 08:58:34;;;;;;;4.27;1.93;;;13.20;99.90;;;;;;5050358;28;20248;-73
2020/12/22 09:01:24;;;;;;;2.53;2.00;;;13.20;99.90;;;;;;5033732;28;20927;-74
2020/12/22 09:03:51;;;;;;;2.10;1.77;;;13.20;99.90;;;;;;5047919;28;20489;-74
2020/12/22 09:06:18;;;;;;;1.70;1.60;;;13.30;99.90;;;;;;5045087;28;20455;-74
2020/12/22 09:08:45;;;;;;;2.53;1.60;;;13.30;99.90;;;;;;5048942;28;20425;-74
2020/12/22 09:11:18;;;;;;;2.73;1.90;;;13.20;99.90;;;;;;5053945;28;20424;-74
2020/12/22 09:13:44;;;;;;;2.50;1.57;;;13.30;99.90;;;;;;5046686;28;20460;-74
2020/12/22 09:16:12;;;;;;;2.10;1.90;;;13.30;99.90;;;;;;5053343;28;20464;-74
2020/12/22 09:18:37;;;;;;;1.83;1.73;;;13.30;99.90;;;;;;5055913;28;20263;-74
2020/12/22 09:21:07;;;;;;;2.03;1.93;;;13.30;99.90;;;;;;5047621;28;20511;-74
2020/12/22 09:23:43;;;;;;;5.73;2.10;;;13.30;99.90;;;;;;5043567;28;20470;-74
2020/12/22 09:26:09;;;;;;;4.50;2.00;;;13.30;99.90;;;;;;5044246;28;20440;-74
2020/12/22 09:28:34;;;;;;;2.50;2.27;;;13.40;99.90;;;;;;5040221;28;20429;-74
2020/12/22 09:31:00;;;;;;;3.60;2.33;;;13.40;99.90;;;;;;5058954;28;20182;-74
2020/12/22 09:33:25;;;;;;;1.87;1.77;;;13.40;99.90;;;;;;5048608;28;20279;-75
2020/12/22 09:35:51;;;;;;;2.23;1.97;;;13.50;99.90;;;;;;5045113;28;20226;-74
2020/12/22 09:38:16;;;;;;;2.53;1.97;;;13.50;99.90;;;;;;5049174;28;20203;-75
2020/12/22 09:40:42;;;;;;;2.17;1.97;;;13.50;99.90;;;;;;5043364;28;20254;-74
2020/12/22 09:43:08;;;;;;;3.63;3.27;;;13.40;99.90;;;;;;5057930;28;20170;-75
2020/12/22 09:45:33;;;;;;;2.87;2.63;;;13.40;99.90;;;;;;5051191;28;20333;-75
2020/12/22 09:47:59;;;;;;;2.60;2.40;;;13.40;99.90;;;;;;5043166;28;20555;-74
2020/12/22 09:50:24;;;;;;;4.67;2.70;;;13.40;99.90;;;;;;5044383;28;20637;-75
2020/12/22 09:52:50;;;;;;;2.40;2.30;;;13.50;99.90;;;;;;5035497;28;20571;-75
2020/12/22 09:55:15;;;;;;;2.50;2.30;;;13.50;99.90;;;;;;5045199;28;20206;-75
2020/12/22 09:57:41;;;;;;;2.97;2.13;;;13.50;99.90;;;;;;5050467;28;20282;-75
2020/12/22 10:00:06;;;;;;;2.23;1.70;;;13.60;99.90;;;;;;5050423;28;20178;-75
2020/12/22 10:02:32;;;;;;;3.30;1.70;;;13.50;99.90;;;;;;5044477;28;20254;-75
2020/12/22 10:04:57;;;;;;;2.07;1.87;;;13.50;99.90;;;;;;5040991;28;20227;-75
2020/12/22 10:07:23;;;;;;;1.90;1.70;;;13.50;99.90;;;;;;5054336;28;20490;-75
2020/12/22 10:09:48;;;;;;;1.90;1.60;;;13.50;99.90;;;;;;5046201;28;20637;-75
2020/12/22 10:12:14;;;;;;;2.07;1.13;;;13.50;99.90;;;;;;5046676;28;20171;-75
2020/12/22 10:14:39;;;;;;;1.53;1.20;;;13.50;99.90;;;;;;5038100;28;20190;-75
2020/12/22 10:17:06;;;;;;;2.23;1.00;;;13.60;99.90;;;;;;5045194;28;20232;-75
2020/12/22 10:19:32;;;;;;;2.53;1.20;;;13.60;99.90;;;;;;5020982;28;20201;-75
2020/12/22 10:21:57;;;;;;;1.13;1.00;;;13.70;99.90;;;;;;5042301;28;20909;-74
2020/12/22 10:24:23;;;;;;;1.40;1.30;;;13.60;99.90;;;;;;5050391;28;20178;-74
2020/12/22 10:26:49;;;;;;;1.33;1.23;;;13.70;99.90;;;;;;5051495;28;20267;-75
2020/12/22 10:29:14;;;;;;;1.00;1.00;;;13.70;99.90;;;;;;5046446;28;20240;-74
2020/12/22 10:31:40;;;;;;;1.53;1.30;;;13.60;99.90;;;;;;5051178;28;20190;-74
2020/12/22 10:34:05;;;;;;;1.50;1.40;;;13.70;99.90;;;;;;5045322;28;20720;-75
2020/12/22 10:36:32;;;;;;;1.63;1.53;;;13.70;99.90;;;;;;5050483;28;20214;-73
2020/12/22 10:38:57;;;;;;;1.77;1.63;;;13.70;99.90;;;;;;5048606;28;20202;-74
2020/12/22 10:41:24;;;;;;;1.37;1.27;;;13.70;99.90;;;;;;5047898;28;20486;-74
2020/12/22 10:43:51;;;;;;;3.83;1.70;;;13.70;99.90;;;;;;5039973;28;20269;-75
2020/12/22 10:46:17;;;;;;;1.97;1.87;;;13.70;99.90;;;;;;5052269;28;21015;-73
2020/12/22 10:48:46;;;;;;;1.70;1.60;;;13.70;99.90;;;;;;5047427;28;20950;-74
2020/12/22 10:51:13;;;;;;;2.97;1.90;;;13.70;99.90;;;;;;5044206;28;20568;-74
2020/12/22 10:53:40;;;;;;;2.30;2.10;;;13.70;99.90;;;;;;5049786;28;20528;-74
2020/12/22 10:56:10;;;;;;;2.93;2.10;;;13.70;99.90;;;;;;5047025;28;20444;-75
2020/12/22 10:58:36;;;;;;;2.40;2.30;;;13.70;99.90;;;;;;5043984;28;20472;-75
2020/12/22 11:01:02;;;;;;;2.50;2.30;;;13.70;99.90;;;;;;5048137;28;20424;-75
2020/12/22 11:03:28;;;;;;;2.30;2.10;;;13.70;99.90;;;;;;5052677;28;20417;-75
2020/12/22 11:06:04;;;;;;;2.60;2.40;;;13.70;99.90;;;;;;5042359;28;21184;-74
2020/12/22 11:08:29;;;;;;;2.73;2.43;;;13.70;99.90;;;;;;5044112;28;20222;-74
2020/12/22 11:10:55;;;;;;;2.30;2.10;;;13.70;99.90;;;;;;5044636;28;21369;-74
2020/12/22 11:13:20;;;;;;;2.17;2.03;;;13.60;99.90;;;;;;5050444;28;20214;-75
2020/12/22 11:15:46;;;;;;;2.53;2.33;;;13.60;99.90;;;;;;5049401;28;20209;-74
2020/12/22 11:18:11;;;;;;;2.40;2.20;;;13.50;99.90;;;;;;5051439;28;20214;-74
2020/12/22 11:20:37;;;;;;;2.00;1.90;;;13.50;99.90;;;;;;5048781;28;20185;-75
2020/12/22 11:23:03;;;;;;;3.10;2.33;;;13.50;99.90;;;;;;5044989;28;20174;-75
2020/12/22 11:25:29;;;;;;;2.20;1.83;;;13.50;99.90;;;;;;5047220;28;20552;-75
2020/12/22 11:27:54;;;;;;;2.10;1.90;;;13.50;99.90;;;;;;5051068;28;20447;-75
2020/12/22 11:30:20;;;;;;;2.07;1.97;;;13.50;99.90;;;;;;5049643;28;20594;-75
2020/12/22 11:32:46;;;;;;;2.03;1.93;;;13.60;99.90;;;;;;5052422;28;20249;-75
2020/12/22 11:35:12;;;;;;;1.60;1.50;;;13.60;99.90;;;;;;5051713;28;20278;-74
2020/12/22 11:37:37;;;;;;;1.20;1.10;;;13.60;99.90;;;;;;5041392;28;20453;-74
2020/12/22 11:40:05;;;;;;;2.30;1.30;;;13.60;99.90;;;;;;5047063;28;20428;-75
2020/12/22 11:42:31;;;;;;;2.70;1.63;;;13.70;99.90;;;;;;5052237;28;20253;-75
2020/12/22 11:44:57;;;;;;;1.63;1.30;;;13.70;99.90;;;;;;5049508;28;20508;-73
2020/12/22 11:47:22;;;;;;;2.30;1.80;;;13.80;99.90;;;;;;5051896;28;20899;-74
2020/12/22 11:49:48;;;;;;;1.30;1.20;;;13.80;99.90;;;;;;5051814;28;20218;-75
2020/12/22 11:52:13;;;;;;;3.80;1.93;;;13.80;99.90;;;;;;5052189;28;20194;-76
2020/12/22 11:54:39;;;;;;;4.40;2.03;;;13.90;99.90;;;;;;5051574;28;20186;-75
2020/12/22 11:57:05;;;;;;;2.20;1.63;;;14.00;99.90;;;;;;5050588;28;20695;-76
2020/12/22 11:59:32;;;;;;;2.10;1.70;;;14.10;99.90;;;;;;5046007;28;20266;-76
2020/12/22 12:02:01;;;;;;;1.70;1.50;;;14.20;99.90;;;;;;5052045;28;20954;-75
2020/12/22 12:04:30;;;;;;;1.43;1.33;;;14.30;99.90;;;;;;5047353;28;20922;-76
2020/12/22 12:06:56;;;;;;;1.43;1.33;;;14.30;99.90;;;;;;5049859;28;20455;-75
2020/12/22 12:09:21;;;;;;;2.50;1.40;;;14.30;99.90;;;;;;5082734;28;20429;-74
2020/12/22 12:11:51;;;;;;;1.47;1.37;;;14.30;99.90;;;;;;5051776;28;20178;-74
2020/12/22 12:14:18;;;;;;;2.50;1.73;;;14.20;99.90;;;;;;5051088;28;20518;-74
2020/12/22 12:16:48;;;;;;;3.37;3.07;;;14.20;99.90;;;;;;5045430;28;20532;-73
2020/12/22 12:19:14;;;;;;;1.63;1.50;;;14.20;99.90;;;;;;5046410;28;20473;-73
2020/12/22 12:21:40;;;;;;;2.00;1.53;;;14.10;99.90;;;;;;5049346;28;20432;-75
2020/12/22 12:24:06;;;;;;;1.57;1.47;;;14.20;99.90;;;;;;5051345;28;20628;-74
2020/12/22 12:26:31;;;;;;;1.40;1.30;;;14.10;99.90;;;;;;5043213;28;20468;-74
2020/12/22 12:28:57;;;;;;;3.63;1.63;;;14.10;99.90;;;;;;5052265;28;20626;-74
2020/12/22 12:31:24;;;;;;;1.33;1.23;;;14.00;99.90;;;;;;5044540;28;20210;-74
2020/12/22 12:33:49;;;;;;;3.13;1.40;;;14.00;99.90;;;;;;5048712;28;20757;-75
2020/12/22 12:36:15;;;;;;;1.27;1.17;;;14.00;99.90;;;;;;5050996;28;20480;-74
2020/12/22 12:38:41;;;;;;;3.10;1.30;;;14.00;99.90;;;;;;5051709;28;20572;-75
2020/12/22 12:41:10;;;;;;;1.40;1.30;;;13.90;99.90;;;;;;5039159;28;20171;-75
2020/12/22 12:43:36;;;;;;;1.17;1.10;;;13.90;99.90;;;;;;5048056;28;20837;-74
2020/12/22 12:46:04;;;;;;;2.40;1.67;;;13.90;99.90;;;;;;5053925;28;20530;-74
2020/12/22 12:48:30;;;;;;;1.63;1.30;;;13.90;99.90;;;;;;5048554;28;20186;-74